Time;durP1;ratioP1;P1;durP2;ratioP2;P2;SDS_P1;SDS_P2;PMS_P1;PMS_P2;Temp;Humidity;BMP_temperature;BMP_pressure;BME280_temperature;BME280_humidity;BME280_pressure;Samples;Min_cycle;Max_cycle;Signal;HPM_P1;HPM_P2
2022/12/21 00:01:20;;;;;;;51.00;26.30;;;;;;;-145.18;100.00;46697.50;4992984;28;20286;-71
2022/12/21 00:03:46;;;;;;;;;;;;;;;-145.18;100.00;46681.88;5011491;28;20717;-71
2022/12/21 00:06:12;;;;;;;48.43;26.07;;;;;;;-145.18;100.00;46691.66;5019293;28;20015;-71
2022/12/21 00:08:43;;;;;;;49.63;26.37;;;;;;;-145.18;100.00;46697.50;5030305;28;20052;-71
2022/12/21 00:11:10;;;;;;;50.20;27.40;;;;;;;-145.18;100.00;46693.59;5019319;28;20263;-71
2022/12/21 00:13:35;;;;;;;50.57;28.33;;;;;;;-145.18;100.00;46697.50;5021293;28;20274;-71
2022/12/21 00:16:05;;;;;;;56.30;28.77;;;;;;;-145.18;100.00;46701.41;5022534;28;20328;-71
2022/12/21 00:18:32;;;;;;;53.23;29.00;;;;;;;-145.18;100.00;46699.47;5030870;28;20068;-71
2022/12/21 00:21:08;;;;;;;57.30;29.63;;;;;;;-145.18;100.00;46697.50;5030736;28;20627;-71
2022/12/21 00:23:34;;;;;;;69.93;29.57;;;;;;;-145.18;100.00;46695.56;5014042;28;20282;-71
2022/12/21 00:26:02;;;;;;;44.17;26.30;;;;;;;-145.18;100.00;46697.50;5022498;28;20286;-71
2022/12/21 00:28:28;;;;;;;66.23;26.47;;;;;;;-145.18;100.00;46693.59;5010730;28;20034;-71
2022/12/21 00:30:53;;;;;;;55.93;29.23;;;;;;;-145.18;100.00;46695.56;5030164;28;20282;-71
2022/12/21 00:33:19;;;;;;;53.27;28.57;;;;;;;-145.18;100.00;46693.59;5030008;28;20054;-71
2022/12/21 00:35:49;;;;;;;63.37;30.80;;;;;;;-145.18;100.00;46707.28;5026835;28;20042;-71
2022/12/21 00:38:15;;;;;;;56.63;30.70;;;;;;;-145.18;100.00;46681.88;5021683;28;20521;-71
2022/12/21 00:40:40;;;;;;;63.50;29.47;;;;;;;-145.18;100.00;46689.69;5030376;28;20270;-72
2022/12/21 00:43:06;;;;;;;65.40;31.47;;;;;;;-145.18;100.00;46701.41;5029924;28;20048;-71
2022/12/21 00:45:31;;;;;;;61.97;32.63;;;;;;;-145.18;100.00;46701.41;5023971;28;20034;-71
2022/12/21 00:47:56;;;;;;;61.70;32.20;;;;;;;-145.18;100.00;46707.28;5010233;28;20046;-71
2022/12/21 00:50:22;;;;;;;57.37;31.67;;;;;;;-145.18;100.00;46697.50;5010412;28;20439;-71
2022/12/21 00:52:47;;;;;;;59.43;32.00;;;;;;;-145.18;100.00;46707.28;5010342;28;20030;-71
2022/12/21 00:55:12;;;;;;;59.10;31.13;;;;;;;-145.18;100.00;46695.56;5012755;28;20046;-72
2022/12/21 00:57:38;;;;;;;55.10;30.30;;;;;;;-145.18;100.00;46707.28;5011678;28;20045;-71
2022/12/21 01:00:04;;;;;;;73.80;29.03;;;;;;;-145.18;100.00;46691.66;5030097;28;20033;-72
2022/12/21 01:02:29;;;;;;;84.40;27.67;;;;;;;-145.18;100.00;46701.41;5029683;28;20048;-71
2022/12/21 01:04:54;;;;;;;127.83;29.50;;;;;;;-145.18;100.00;46713.13;5030018;28;20045;-71
2022/12/21 01:07:20;;;;;;;102.43;28.63;;;;;;;-145.18;100.00;46695.56;5009889;28;20136;-71
2022/12/21 01:09:45;;;;;;;87.37;29.87;;;;;;;-145.18;100.00;46699.47;5010505;28;20467;-71
2022/12/21 01:12:10;;;;;;;293.03;34.20;;;;;;;-145.18;100.00;46695.56;5026349;28;20037;-71
2022/12/21 01:14:36;;;;;;;202.50;33.33;;;;;;;-145.18;100.00;46705.31;5012318;28;20042;-71
2022/12/21 01:17:01;;;;;;;178.63;30.13;;;;;;;-145.18;100.00;46699.47;5028755;28;20120;-71
2022/12/21 01:19:27;;;;;;;214.70;30.20;;;;;;;-145.18;100.00;46711.19;5030865;28;20091;-71
2022/12/21 01:21:52;;;;;;;119.60;29.37;;;;;;;-145.18;100.00;46697.50;5033735;28;20037;-71
2022/12/21 01:24:17;;;;;;;157.67;29.23;;;;;;;-145.18;100.00;46697.50;5033795;28;20536;-71
2022/12/21 01:26:43;;;;;;;116.50;31.93;;;;;;;-145.18;100.00;46695.56;5017067;28;20037;-71
2022/12/21 01:29:12;;;;;;;140.07;32.97;;;;;;;-145.18;100.00;46695.56;5014136;28;20454;-71
2022/12/21 01:31:37;;;;;;;68.20;27.90;;;;;;;-145.18;100.00;46705.31;4996112;28;20390;-71
2022/12/21 01:34:03;;;;;;;61.97;29.97;;;;;;;-145.18;100.00;46699.47;5013859;28;20346;-71
2022/12/21 01:36:28;;;;;;;49.73;27.17;;;;;;;-145.18;100.00;46699.47;5030132;28;20045;-71
2022/12/21 01:38:54;;;;;;;164.23;33.27;;;;;;;-145.18;100.00;46699.47;5033704;28;20044;-71
2022/12/21 01:41:25;;;;;;;298.27;35.13;;;;;;;-145.18;100.00;46709.22;5033358;28;20449;-72
2022/12/21 01:43:55;;;;;;;322.40;39.23;;;;;;;-145.18;100.00;46697.50;5033859;28;20100;-71
2022/12/21 01:46:36;;;;;;;144.90;32.57;;;;;;;-145.18;100.00;46697.50;5017378;28;20295;-71
2022/12/21 01:49:22;;;;;;;141.30;34.33;;;;;;;-145.18;100.00;46703.38;5013753;28;20617;-71
2022/12/21 01:51:58;;;;;;;224.95;35.92;;;;;;;-145.18;100.00;46705.31;5013790;28;20260;-71
2022/12/21 01:54:42;;;;;;;189.73;33.63;;;;;;;-145.18;100.00;46711.19;5013595;28;20041;-71
2022/12/21 01:57:10;;;;;;;182.97;34.13;;;;;;;-145.18;100.00;46705.31;5013076;28;20755;-71
2022/12/21 01:59:39;;;;;;;88.97;31.27;;;;;;;-145.18;100.00;46705.31;5013611;28;20263;-71
2022/12/21 02:02:13;;;;;;;162.17;35.00;;;;;;;-145.18;100.00;46689.69;5013290;28;20267;-71
2022/12/21 02:04:40;;;;;;;228.40;35.60;;;;;;;-145.18;100.00;46705.31;5014107;28;20445;-72
2022/12/21 02:07:06;;;;;;;102.67;32.27;;;;;;;-145.18;100.00;46699.47;5032767;28;20298;-71
2022/12/21 02:09:34;;;;;;;98.10;31.73;;;;;;;-145.18;100.00;46705.31;5032629;28;20624;-71
2022/12/21 02:12:03;;;;;;;110.00;32.47;;;;;;;-145.18;100.00;46691.66;5014727;28;20128;-71
2022/12/21 02:14:33;;;;;;;107.63;31.17;;;;;;;-145.18;100.00;46693.59;5033066;28;20320;-72
2022/12/21 02:17:23;;;;;;;141.33;33.30;;;;;;;-145.18;100.00;46709.22;5032657;28;20735;-71
2022/12/21 02:20:30;;;;;;;91.37;31.63;;;;;;;-145.18;100.00;46709.22;5031632;28;20285;-71
2022/12/21 02:23:15;;;;;;;;;;;;;;;-145.18;100.00;46709.22;5013497;28;20310;-71
2022/12/21 02:26:08;;;;;;;98.07;29.70;;;;;;;-145.18;100.00;46703.38;5023409;28;19940;-72
2022/12/21 02:29:05;;;;;;;163.70;32.23;;;;;;;-145.18;100.00;46699.47;5032591;28;20362;-72
2022/12/21 02:31:50;;;;;;;199.15;31.90;;;;;;;-145.18;100.00;46711.19;5032215;28;20668;-72
2022/12/21 02:34:32;;;;;;;443.25;41.35;;;;;;;-145.18;100.00;46697.50;5032497;28;20057;-72
2022/12/21 02:37:04;;;;;;;156.83;32.47;;;;;;;-145.18;100.00;46699.47;5012598;28;20045;-71
2022/12/21 02:39:42;;;;;;;408.70;37.10;;;;;;;-145.18;100.00;46703.38;5012991;28;20799;-71
2022/12/21 02:45:23;;;;;;;396.90;35.33;;;;;;;-145.18;100.00;46697.50;5019288;28;20301;-72
2022/12/21 02:48:10;;;;;;;276.77;33.67;;;;;;;-145.18;100.00;46707.28;5032228;28;20282;-71
2022/12/21 02:50:41;;;;;;;306.00;34.47;;;;;;;-145.18;100.00;46701.41;5032523;28;20266;-72
2022/12/21 02:53:14;;;;;;;205.93;31.77;;;;;;;-145.18;100.00;46689.69;5032094;28;20290;-72
2022/12/21 02:55:39;;;;;;;119.80;29.87;;;;;;;-145.18;100.00;46695.56;5022414;28;20267;-72
2022/12/21 02:58:23;;;;;;;187.07;31.80;;;;;;;-145.18;100.00;46693.59;5013087;28;20353;-72
2022/12/21 03:04:00;;;;;;;413.90;36.58;;;;;;;-145.18;100.00;46703.38;4231050;22;20338;-72
2022/12/21 03:06:56;;;;;;;267.50;31.63;;;;;;;-145.18;100.00;46703.38;5022451;28;20073;-72
2022/12/21 03:09:36;;;;;;;122.60;26.55;;;;;;;-145.18;100.00;46699.47;5020994;28;20276;-72
2022/12/21 03:12:16;;;;;;;97.37;26.70;;;;;;;-145.18;100.00;46701.41;5014987;28;20041;-72
2022/12/21 03:14:53;;;;;;;87.27;27.53;;;;;;;-145.18;100.00;46699.47;5051873;28;20732;-72
2022/12/21 03:17:44;;;;;;;141.17;29.80;;;;;;;-145.18;100.00;46697.50;5051748;28;20627;-73
2022/12/21 03:20:13;;;;;;;106.93;30.20;;;;;;;-145.18;100.00;46699.47;5051733;28;20312;-72
2022/12/21 03:22:41;;;;;;;148.10;30.33;;;;;;;-145.18;100.00;46691.66;5044066;28;20331;-72
2022/12/21 03:25:06;;;;;;;60.93;27.13;;;;;;;-145.18;100.00;46703.38;5031453;28;21087;-72
2022/12/21 03:27:54;;;;;;;86.93;29.07;;;;;;;-145.18;100.00;46695.56;5031863;28;20290;-72
2022/12/21 03:30:21;;;;;;;85.97;28.80;;;;;;;-145.18;100.00;46703.38;5031838;28;20037;-72
2022/12/21 03:33:05;;;;;;;56.43;27.93;;;;;;;-145.18;100.00;46693.59;5031142;28;20291;-72
2022/12/21 03:35:56;;;;;;;100.47;30.83;;;;;;;-145.18;100.00;46695.56;5031840;28;20275;-72
2022/12/21 03:38:29;;;;;;;84.93;28.27;;;;;;;-145.18;100.00;46701.41;5031558;28;20385;-72
2022/12/21 03:40:59;;;;;;;71.97;30.63;;;;;;;-145.18;100.00;46705.31;5030868;28;20274;-72
2022/12/21 03:43:30;;;;;;;113.03;30.47;;;;;;;-145.18;100.00;46693.59;5030442;28;20282;-72
2022/12/21 03:46:00;;;;;;;79.20;29.10;;;;;;;-145.18;100.00;46701.41;5031433;28;20278;-72
2022/12/21 03:49:04;;;;;;;95.10;30.57;;;;;;;-145.18;100.00;46691.66;5030692;28;20278;-72
2022/12/21 03:51:44;;;;;;;79.67;30.57;;;;;;;-145.18;100.00;46699.47;4990567;28;20782;-72
2022/12/21 03:54:21;;;;;;;77.57;30.80;;;;;;;-145.18;100.00;46697.50;5030817;28;20270;-72
2022/12/21 03:56:48;;;;;;;74.87;31.73;;;;;;;-145.18;100.00;46701.41;5031291;28;20259;-72
2022/12/21 03:59:15;;;;;;;68.23;32.23;;;;;;;-145.18;100.00;46713.13;5030968;28;20757;-72
2022/12/21 04:01:55;;;;;;;69.50;33.97;;;;;;;-145.18;100.00;46701.41;5024656;28;20679;-72
2022/12/21 04:04:31;;;;;;;76.73;33.37;;;;;;;-145.18;100.00;46697.50;4991957;28;20315;-72
2022/12/21 04:07:01;;;;;;;83.20;34.93;;;;;;;-145.18;100.00;46705.31;4991491;28;20716;-72
2022/12/21 04:09:27;;;;;;;70.87;31.70;;;;;;;-145.18;100.00;46693.59;4991599;28;20386;-72
2022/12/21 04:14:37;;;;;;;74.63;31.37;;;;;;;-145.18;100.00;46699.47;5010115;28;20061;-72
2022/12/21 04:17:03;;;;;;;72.70;32.53;;;;;;;-145.18;100.00;46699.47;5010982;28;20748;-72
2022/12/21 04:28:07;;;;;;;67.00;31.97;;;;;;;-145.18;100.00;46699.47;5010559;28;20049;-72
2022/12/21 04:30:26;;;;;;;80.60;35.17;;;;;;;-145.18;100.00;46705.31;5011497;28;20319;-72
2022/12/21 04:32:51;;;;;;;75.87;34.30;;;;;;;-145.18;100.00;46705.31;5010341;28;20287;-72
2022/12/21 04:35:16;;;;;;;80.03;33.03;;;;;;;-145.18;100.00;46691.66;4993362;28;20045;-72
2022/12/21 04:37:42;;;;;;;77.87;33.90;;;;;;;-145.18;100.00;46699.47;5010511;28;20457;-72
2022/12/21 04:40:08;;;;;;;79.77;34.93;;;;;;;-145.18;100.00;46701.41;5009770;28;20041;-72
2022/12/21 04:42:33;;;;;;;81.53;36.53;;;;;;;-145.18;100.00;46695.56;5025499;28;20049;-71
2022/12/21 04:44:58;;;;;;;77.50;34.07;;;;;;;-145.18;100.00;46705.31;5010683;28;20524;-72
2022/12/21 04:47:24;;;;;;;78.40;34.30;;;;;;;-145.18;100.00;46707.28;5010392;28;20045;-72
2022/12/21 04:49:50;;;;;;;95.37;36.53;;;;;;;-145.18;100.00;46715.09;4993030;28;20095;-72
2022/12/21 04:52:15;;;;;;;76.90;32.67;;;;;;;-145.18;100.00;46693.59;4992618;28;20462;-72
2022/12/21 04:54:41;;;;;;;82.93;36.03;;;;;;;-145.18;100.00;46693.59;5010563;28;20083;-72
2022/12/21 04:57:06;;;;;;;78.03;34.10;;;;;;;-145.18;100.00;46709.22;5029968;28;20057;-72
2022/12/21 04:59:31;;;;;;;86.23;36.13;;;;;;;-145.18;100.00;46691.66;5030226;28;20642;-72
2022/12/21 05:01:57;;;;;;;82.40;34.87;;;;;;;-145.18;100.00;46701.41;5023804;28;20053;-73
2022/12/21 05:04:22;;;;;;;73.97;33.50;;;;;;;-145.18;100.00;46703.38;5021631;28;20041;-72
2022/12/21 05:06:47;;;;;;;82.90;33.30;;;;;;;-145.18;100.00;46693.59;5010481;28;20045;-72
2022/12/21 05:09:13;;;;;;;75.17;32.80;;;;;;;-145.18;100.00;46705.31;5010048;28;20041;-72
2022/12/21 05:11:39;;;;;;;72.33;33.00;;;;;;;-145.18;100.00;46689.69;5010676;28;20030;-72
2022/12/21 05:14:04;;;;;;;81.07;33.63;;;;;;;-145.18;100.00;46697.50;5009327;28;20088;-72
2022/12/21 05:16:29;;;;;;;88.73;32.87;;;;;;;-145.18;100.00;46699.47;5010419;28;20057;-72
2022/12/21 05:18:56;;;;;;;66.50;30.90;;;;;;;-145.18;100.00;46699.47;5009985;28;20045;-72
2022/12/21 05:21:22;;;;;;;64.87;30.33;;;;;;;-145.18;100.00;46693.59;5010118;28;20030;-72
2022/12/21 05:23:47;;;;;;;73.43;32.00;;;;;;;-145.18;100.00;46689.69;5009474;28;20278;-72
2022/12/21 05:26:13;;;;;;;67.23;32.57;;;;;;;-145.18;100.00;46693.59;5009288;28;20295;-71
2022/12/21 05:28:38;;;;;;;62.83;31.83;;;;;;;-145.18;100.00;46691.66;5009833;28;20115;-72
2022/12/21 05:31:05;;;;;;;60.87;30.90;;;;;;;-145.18;100.00;46693.59;4994150;28;20399;-72
2022/12/21 05:33:31;;;;;;;58.57;30.60;;;;;;;-145.18;100.00;46693.59;4989675;28;20026;-72
2022/12/21 05:35:56;;;;;;;65.13;30.17;;;;;;;-145.18;100.00;46695.56;5017609;28;20277;-72
2022/12/21 05:38:24;;;;;;;55.03;30.10;;;;;;;-145.18;100.00;46699.47;5018072;28;20104;-72
2022/12/21 05:40:50;;;;;;;63.67;32.70;;;;;;;-145.18;100.00;46703.38;5014172;28;20034;-72
2022/12/21 05:43:16;;;;;;;59.07;31.07;;;;;;;-145.18;100.00;46691.66;5008682;28;20267;-72
2022/12/21 05:45:42;;;;;;;65.10;32.37;;;;;;;-145.18;100.00;46695.56;4991022;28;20286;-72
2022/12/21 05:48:07;;;;;;;63.40;30.90;;;;;;;-145.18;100.00;46703.38;5007268;28;20295;-72
2022/12/21 05:50:33;;;;;;;57.30;30.53;;;;;;;-145.18;100.00;46695.56;5007915;28;20033;-72
2022/12/21 05:52:58;;;;;;;56.37;29.93;;;;;;;-145.18;100.00;46703.38;5008299;28;20134;-72
2022/12/21 05:55:23;;;;;;;54.60;31.07;;;;;;;-145.18;100.00;46701.41;5009912;28;20375;-72
2022/12/21 05:57:49;;;;;;;57.50;31.07;;;;;;;-145.18;100.00;46697.50;5009734;28;20030;-72
2022/12/21 06:00:15;;;;;;;65.63;31.53;;;;;;;-145.18;100.00;46709.22;5009761;28;20046;-72
2022/12/21 06:02:40;;;;;;;63.10;31.63;;;;;;;-145.18;100.00;46715.09;5009433;28;20046;-72
2022/12/21 06:05:06;;;;;;;62.47;31.77;;;;;;;-145.18;100.00;46715.09;5010141;28;20088;-72
2022/12/21 06:07:31;;;;;;;62.43;32.70;;;;;;;-145.18;100.00;46703.38;5015657;28;20088;-72
2022/12/21 06:09:57;;;;;;;65.50;33.33;;;;;;;-145.18;100.00;46691.66;5013125;28;20045;-72
2022/12/21 06:12:22;;;;;;;61.00;32.57;;;;;;;-145.18;100.00;46697.50;5013031;28;20034;-72
2022/12/21 06:14:48;;;;;;;58.80;33.30;;;;;;;-145.18;100.00;46701.41;5024784;28;20076;-72
2022/12/21 06:17:13;;;;;;;62.23;34.00;;;;;;;-145.18;100.00;46699.47;5032664;28;20065;-72
2022/12/21 06:19:38;;;;;;;66.27;33.27;;;;;;;-145.18;100.00;46703.38;5032873;28;20444;-72
2022/12/21 06:22:04;;;;;;;67.80;34.97;;;;;;;-145.18;100.00;46693.59;5032764;28;20113;-72
2022/12/21 06:24:29;;;;;;;58.23;33.67;;;;;;;-145.18;100.00;46705.31;5032653;28;20041;-72
2022/12/21 06:26:55;;;;;;;61.17;32.07;;;;;;;-145.18;100.00;46697.50;5032770;28;20100;-72
2022/12/21 06:29:20;;;;;;;59.30;32.83;;;;;;;-145.18;100.00;46701.41;5014738;28;20112;-72
2022/12/21 06:31:46;;;;;;;58.20;31.40;;;;;;;-145.18;100.00;46709.22;5032833;28;20029;-72
2022/12/21 06:34:11;;;;;;;63.40;32.93;;;;;;;-145.18;100.00;46701.41;5032356;28;20033;-72
2022/12/21 06:36:37;;;;;;;58.47;31.07;;;;;;;-145.18;100.00;46693.59;5032830;28;20115;-72
2022/12/21 06:39:02;;;;;;;56.40;31.40;;;;;;;-145.18;100.00;46711.19;5032068;28;20500;-72
2022/12/21 06:41:27;;;;;;;50.20;28.27;;;;;;;-145.18;100.00;46703.38;5032760;28;20049;-72
2022/12/21 06:43:53;;;;;;;55.47;29.27;;;;;;;-145.18;100.00;46693.59;5032351;28;20466;-72
2022/12/21 06:46:19;;;;;;;56.23;29.30;;;;;;;-145.18;100.00;46699.47;5032382;28;20044;-72
2022/12/21 06:48:45;;;;;;;56.93;29.10;;;;;;;-145.18;100.00;46709.22;5032321;28;20056;-72
2022/12/21 06:51:21;;;;;;;60.10;28.10;;;;;;;-145.18;100.00;46701.41;5032152;28;20730;-72
2022/12/21 06:53:49;;;;;;;55.93;29.33;;;;;;;-145.18;100.00;46695.56;5018736;28;20057;-72
2022/12/21 06:56:16;;;;;;;47.10;26.57;;;;;;;-145.18;100.00;46703.38;5008737;28;20964;-72
2022/12/21 06:58:42;;;;;;;55.33;28.00;;;;;;;-145.18;100.00;46699.47;5009802;28;20298;-72
2022/12/21 07:01:10;;;;;;;50.57;27.20;;;;;;;-145.18;100.00;46715.09;5011396;28;21043;-72
2022/12/21 07:03:35;;;;;;;60.77;27.87;;;;;;;-145.18;100.00;46701.41;5010125;28;20041;-72
2022/12/21 07:06:01;;;;;;;54.97;28.00;;;;;;;-145.18;100.00;46711.19;5011732;28;20279;-72
2022/12/21 07:08:27;;;;;;;59.73;26.87;;;;;;;-145.18;100.00;46697.50;5012052;28;20038;-72
2022/12/21 07:11:02;;;;;;;57.47;27.37;;;;;;;-145.18;100.00;46703.38;5012144;28;20034;-72
2022/12/21 07:13:28;;;;;;;47.87;25.03;;;;;;;-145.18;100.00;46711.19;5011732;28;20609;-72
2022/12/21 07:15:54;;;;;;;46.50;25.60;;;;;;;-145.18;100.00;46705.31;5011986;28;20274;-72
2022/12/21 07:18:20;;;;;;;55.57;28.10;;;;;;;-145.18;100.00;46699.47;5010681;28;20121;-72
2022/12/21 07:20:46;;;;;;;58.60;27.50;;;;;;;-145.18;100.00;46705.31;5012391;28;20402;-72
2022/12/21 07:23:12;;;;;;;47.93;26.30;;;;;;;-145.18;100.00;46703.38;5010311;28;20034;-72
2022/12/21 07:25:37;;;;;;;53.77;27.07;;;;;;;-145.18;100.00;46711.19;5012147;28;20034;-74
2022/12/21 07:28:03;;;;;;;55.57;26.83;;;;;;;-145.18;100.00;46707.28;5011404;28;20287;-73
2022/12/21 07:30:28;;;;;;;53.67;26.93;;;;;;;-145.18;100.00;46703.38;5011978;28;20507;-74
2022/12/21 07:32:54;;;;;;;55.83;26.10;;;;;;;-145.18;100.00;46699.47;5011772;28;20552;-74
2022/12/21 07:35:24;;;;;;;53.87;26.00;;;;;;;-145.18;100.00;46717.03;5011631;28;20481;-73
2022/12/21 07:37:50;;;;;;;63.33;27.20;;;;;;;-145.18;100.00;46705.31;5011596;28;20080;-74
2022/12/21 07:40:17;;;;;;;51.60;26.57;;;;;;;-145.18;100.00;46707.28;5011643;28;20275;-74
2022/12/21 07:42:43;;;;;;;53.23;25.87;;;;;;;-145.18;100.00;46703.38;5011519;28;20313;-74
2022/12/21 07:45:09;;;;;;;50.93;26.13;;;;;;;-145.18;100.00;46695.56;5006413;28;20283;-73
2022/12/21 07:47:35;;;;;;;58.03;26.90;;;;;;;-145.18;100.00;46707.28;5011344;28;20287;-73
2022/12/21 07:50:02;;;;;;;53.20;25.90;;;;;;;-145.18;100.00;46703.38;5011221;28;20061;-73
2022/12/21 07:52:27;;;;;;;53.87;26.40;;;;;;;-145.18;100.00;46703.38;5011668;28;20079;-73
2022/12/21 07:54:53;;;;;;;60.53;27.87;;;;;;;-145.18;100.00;46701.41;5010756;28;20358;-73
2022/12/21 07:57:18;;;;;;;52.33;26.40;;;;;;;-145.18;100.00;46701.41;5011240;28;20107;-74
2022/12/21 07:59:44;;;;;;;59.77;25.93;;;;;;;-145.18;100.00;46697.50;5010831;28;20045;-73
2022/12/21 08:02:09;;;;;;;50.00;26.00;;;;;;;-145.18;100.00;46711.19;5010764;28;20495;-73
2022/12/21 08:04:34;;;;;;;65.60;27.27;;;;;;;-145.18;100.00;46701.41;4993894;28;20130;-74
2022/12/21 08:07:00;;;;;;;55.20;25.73;;;;;;;-145.18;100.00;46699.47;5011237;28;20533;-74
2022/12/21 08:09:25;;;;;;;51.03;26.20;;;;;;;-145.18;100.00;46701.41;5011034;28;20065;-73
2022/12/21 08:11:50;;;;;;;55.87;26.30;;;;;;;-145.18;100.00;46707.28;5011053;28;20030;-73
2022/12/21 08:14:16;;;;;;;56.73;26.97;;;;;;;-145.18;100.00;46715.09;5004783;28;20043;-73
2022/12/21 08:16:41;;;;;;;53.93;25.17;;;;;;;-145.18;100.00;46711.19;4991690;28;20038;-74
2022/12/21 08:19:06;;;;;;;57.77;26.87;;;;;;;-145.18;100.00;46711.19;4991250;28;20037;-73
2022/12/21 08:21:32;;;;;;;52.67;25.23;;;;;;;-145.18;100.00;46703.38;4991434;28;20474;-73
2022/12/21 08:23:57;;;;;;;47.90;24.27;;;;;;;-145.18;100.00;46713.13;4990869;28;20507;-73
2022/12/21 08:26:23;;;;;;;56.10;24.50;;;;;;;-145.18;100.00;46711.19;4991420;28;20061;-73
2022/12/21 08:28:48;;;;;;;50.57;25.33;;;;;;;-145.18;100.00;46701.41;4990667;28;20034;-73
2022/12/21 08:31:16;;;;;;;49.87;24.73;;;;;;;-145.18;100.00;46713.13;4991057;28;20034;-73
2022/12/21 08:33:42;;;;;;;49.03;25.53;;;;;;;-145.18;100.00;46717.03;4991205;28;20022;-73
2022/12/21 08:36:12;;;;;;;59.00;25.90;;;;;;;-145.18;100.00;46717.03;4991036;28;20256;-73
2022/12/21 08:38:38;;;;;;;53.07;26.33;;;;;;;-145.18;100.00;46705.31;4991124;28;20759;-73
2022/12/21 08:41:04;;;;;;;64.20;27.47;;;;;;;-145.18;100.00;46715.09;4996553;28;20358;-73
2022/12/21 08:43:29;;;;;;;68.50;29.67;;;;;;;-145.18;100.00;46715.09;5010511;28;20057;-73
2022/12/21 08:45:55;;;;;;;56.87;28.33;;;;;;;-145.18;100.00;46711.19;5010744;28;20064;-74
2022/12/21 08:48:20;;;;;;;64.30;29.83;;;;;;;-145.18;100.00;46707.28;5010124;28;20355;-73
2022/12/21 08:50:50;;;;;;;66.83;29.43;;;;;;;-145.18;100.00;46711.19;5010801;28;20030;-73
2022/12/21 08:53:16;;;;;;;67.27;29.57;;;;;;;-145.18;100.00;46707.28;5010355;28;20037;-73
2022/12/21 08:55:41;;;;;;;69.00;31.77;;;;;;;-145.18;100.00;46707.28;5010471;28;20641;-73
2022/12/21 08:58:07;;;;;;;64.50;31.57;;;;;;;-145.18;100.00;46707.28;5010281;28;20486;-73
2022/12/21 09:00:32;;;;;;;65.07;30.23;;;;;;;-145.18;100.00;46711.19;5010358;28;20121;-73
2022/12/21 09:02:57;;;;;;;74.33;30.43;;;;;;;-145.18;100.00;46711.19;5009010;28;20054;-74
2022/12/21 09:05:23;;;;;;;67.67;29.53;;;;;;;-145.18;100.00;46707.28;5010531;28;20030;-73
2022/12/21 09:07:48;;;;;;;69.63;28.30;;;;;;;-145.18;100.00;46715.09;5010476;28;20524;-74
2022/12/21 09:10:14;;;;;;;71.70;29.97;;;;;;;-145.18;100.00;46711.19;4992631;28;20062;-74
2022/12/21 09:12:39;;;;;;;60.47;29.80;;;;;;;-145.18;100.00;46711.19;5010118;28;20041;-73
2022/12/21 09:15:05;;;;;;;59.93;27.87;;;;;;;-145.18;100.00;46709.22;5024948;28;20029;-74
2022/12/21 09:17:30;;;;;;;70.73;28.17;;;;;;;-145.18;100.00;46709.22;4990388;28;20512;-74
2022/12/21 09:19:56;;;;;;;71.70;29.67;;;;;;;-145.18;100.00;46709.22;5008757;28;20311;-73
2022/12/21 09:22:23;;;;;;;68.90;28.30;;;;;;;-145.18;100.00;46711.19;5009116;28;20391;-73
2022/12/21 09:24:49;;;;;;;65.10;28.43;;;;;;;-145.18;100.00;46705.31;5009942;28;20559;-73
2022/12/21 09:27:14;;;;;;;62.07;28.40;;;;;;;-145.18;100.00;46707.28;5009674;28;20295;-74
2022/12/21 09:29:39;;;;;;;70.70;30.77;;;;;;;-145.18;100.00;46711.19;5010132;28;20034;-74
2022/12/21 09:32:05;;;;;;;75.77;31.07;;;;;;;-145.18;100.00;46705.31;5009963;28;20112;-73
2022/12/21 09:34:30;;;;;;;74.67;31.10;;;;;;;-145.18;100.00;46707.28;5010015;28;20053;-73
2022/12/21 09:36:56;;;;;;;78.70;33.00;;;;;;;-145.18;100.00;46703.38;5009923;28;20164;-73
2022/12/21 09:39:22;;;;;;;76.17;32.33;;;;;;;-145.18;100.00;46703.38;5010062;28;20109;-73
2022/12/21 09:42:04;;;;;;;80.93;36.77;;;;;;;-145.18;100.00;46703.38;5013359;28;20045;-73
2022/12/21 09:44:54;;;;;;;87.40;39.67;;;;;;;-145.18;100.00;46705.31;5013642;28;20079;-73
2022/12/21 09:47:43;;;;;;;82.13;40.10;;;;;;;-145.18;100.00;46705.31;5013580;28;20842;-73
2022/12/21 09:50:18;;;;;;;83.63;39.17;;;;;;;-145.18;100.00;46703.38;5013384;28;20285;-73
2022/12/21 09:52:47;;;;;;;96.68;39.42;;;;;;;-145.18;100.00;46703.38;5013829;28;20347;-74
2022/12/21 09:55:22;;;;;;;93.37;40.37;;;;;;;-145.18;100.00;46701.41;5013368;28;20064;-73
2022/12/21 09:57:52;;;;;;;92.27;37.97;;;;;;;-145.18;100.00;46699.47;5013833;28;20267;-73
2022/12/21 10:00:21;;;;;;;91.33;41.23;;;;;;;-145.18;100.00;46699.47;5013381;28;20271;-73
2022/12/21 10:03:27;;;;;;;97.17;41.77;;;;;;;-145.18;100.00;46697.50;5011600;28;20311;-73
2022/12/21 10:06:08;;;;;;;100.93;40.83;;;;;;;-145.18;100.00;46701.41;4993842;28;20648;-73
2022/12/21 10:08:36;;;;;;;97.17;40.40;;;;;;;-145.18;100.00;46699.47;4993409;28;20282;-73
2022/12/21 10:11:19;;;;;;;87.50;39.13;;;;;;;-145.18;100.00;46697.50;4993755;28;20362;-74
2022/12/21 10:13:55;;;;;;;89.93;40.93;;;;;;;-145.18;100.00;46691.66;4993859;28;20343;-73
2022/12/21 10:16:48;;;;;;;98.97;41.05;;;;;;;-145.18;100.00;46695.56;4993814;28;20268;-73
2022/12/21 10:19:25;;;;;;;92.10;37.80;;;;;;;-145.18;100.00;46695.56;4993402;28;20081;-73
2022/12/21 10:22:00;;;;;;;85.33;37.60;;;;;;;-145.18;100.00;46693.59;4976847;28;20292;-73
2022/12/21 10:24:43;;;;;;;89.57;37.00;;;;;;;-145.18;100.00;46697.50;4993317;28;20751;-73
2022/12/21 10:27:26;;;;;;;77.87;36.10;;;;;;;-145.18;100.00;46691.66;4993424;28;20133;-73
2022/12/21 10:29:56;;;;;;;78.30;36.50;;;;;;;-145.18;100.00;46695.56;4993387;28;20762;-73
2022/12/21 10:32:24;;;;;;;78.00;34.37;;;;;;;-145.18;100.00;46693.59;4992772;28;20661;-73
2022/12/21 10:34:53;;;;;;;71.53;31.93;;;;;;;-145.18;100.00;46695.56;4993118;28;20260;-73
2022/12/21 10:37:21;;;;;;;65.90;30.20;;;;;;;-145.18;100.00;46695.56;4993191;28;20299;-73
2022/12/21 10:39:56;;;;;;;64.83;30.77;;;;;;;-145.18;100.00;46697.50;4993150;28;20260;-74
2022/12/21 10:42:29;;;;;;;67.35;29.73;;;;;;;-145.18;100.00;46699.47;4993168;28;20275;-73
2022/12/21 10:44:54;;;;;;;62.00;26.80;;;;;;;-145.18;100.00;46699.47;4993019;28;20371;-73
2022/12/21 10:47:22;;;;;;;69.60;27.13;;;;;;;-145.18;100.00;46693.59;4993051;28;20303;-73
2022/12/21 10:49:56;;;;;;;58.37;25.67;;;;;;;-145.18;100.00;46699.47;4993194;28;20364;-73
2022/12/21 10:52:31;;;;;;;60.10;25.63;;;;;;;-145.18;100.00;46699.47;4992885;28;20260;-73
2022/12/21 10:54:57;;;;;;;64.50;26.05;;;;;;;-145.18;100.00;46699.47;4992099;28;20360;-73
2022/12/21 10:57:27;;;;;;;61.03;27.20;;;;;;;-145.18;100.00;46701.41;4993062;28;20038;-73
2022/12/21 10:59:52;;;;;;;63.13;29.43;;;;;;;-145.18;100.00;46697.50;4992801;28;20045;-73
2022/12/21 11:02:47;;;;;;;61.57;28.97;;;;;;;-145.18;100.00;46701.41;4992562;28;20292;-73
2022/12/21 11:05:40;;;;;;;66.53;28.23;;;;;;;-145.18;100.00;46699.47;4971652;28;20046;-73
2022/12/21 11:08:14;;;;;;;54.87;26.80;;;;;;;-145.18;100.00;46695.56;4982322;28;20284;-73
2022/12/21 11:10:46;;;;;;;53.53;27.30;;;;;;;-145.18;100.00;46697.50;4992563;28;20275;-73
2022/12/21 11:13:13;;;;;;;54.63;27.17;;;;;;;-145.18;100.00;46697.50;4992335;28;20263;-73
2022/12/21 11:15:50;;;;;;;54.37;27.33;;;;;;;-145.18;100.00;46701.41;4992597;28;20276;-73
2022/12/21 11:18:37;;;;;;;54.60;25.37;;;;;;;-145.18;100.00;46695.56;4992477;28;20276;-73
2022/12/21 11:21:09;;;;;;;47.07;23.60;;;;;;;-145.18;100.00;46697.50;4975008;28;20362;-73
2022/12/21 11:23:35;;;;;;;42.43;23.07;;;;;;;-145.18;100.00;46701.41;4992410;28;20295;-73